createdAt,value
2019-03-30T00:00:41.302Z,15.40
2019-03-30T00:05:47.629Z,15.40
2019-03-30T00:10:53.994Z,15.23
2019-03-30T00:16:00.100Z,14.80
2019-03-30T00:21:05.640Z,15.13
2019-03-30T00:26:11.844Z,12.43
2019-03-30T00:31:17.699Z,12.07
2019-03-30T00:36:24.315Z,13.67
2019-03-30T00:41:29.669Z,25.93
2019-03-30T00:46:34.599Z,13.93
2019-03-30T00:51:39.538Z,12.57
2019-03-30T00:56:44.474Z,13.53
2019-03-30T01:01:49.327Z,13.20
2019-03-30T01:06:54.197Z,15.47
2019-03-30T01:11:59.030Z,13.43
2019-03-30T01:17:04.565Z,14.20
2019-03-30T01:22:09.538Z,15.03
2019-03-30T01:27:15.243Z,16.37
2019-03-30T01:32:20.941Z,16.33
2019-03-30T01:37:27.151Z,16.43
2019-03-30T01:42:33.876Z,16.90
2019-03-30T01:47:39.571Z,16.97
2019-03-30T01:52:45.227Z,15.73
2019-03-30T01:57:50.743Z,15.50
2019-03-30T02:02:56.453Z,15.80
2019-03-30T02:08:02.356Z,13.80
2019-03-30T02:13:08.863Z,14.43
2019-03-30T02:18:14.628Z,15.13
2019-03-30T02:23:21.437Z,14.53
2019-03-30T02:28:27.401Z,15.70
2019-03-30T02:33:33.211Z,15.67
2019-03-30T02:38:38.854Z,13.00
2019-03-30T02:43:44.461Z,13.53
2019-03-30T02:48:50.286Z,14.90
2019-03-30T02:53:56.010Z,12.33
2019-03-30T02:59:01.774Z,17.50
2019-03-30T03:04:07.627Z,17.77
2019-03-30T03:09:13.270Z,14.20
2019-03-30T03:14:19.762Z,13.60
2019-03-30T03:19:25.428Z,15.37
2019-03-30T03:24:31.245Z,12.60
2019-03-30T03:29:36.911Z,16.03
2019-03-30T03:34:42.844Z,12.53
2019-03-30T03:39:48.445Z,13.17
2019-03-30T03:44:55.051Z,13.80
2019-03-30T03:50:00.800Z,14.00
2019-03-30T03:55:07.106Z,11.93
2019-03-30T04:00:13.272Z,13.60
2019-03-30T04:05:21.495Z,17.40
2019-03-30T04:10:31.243Z,15.70
2019-03-30T04:15:37.864Z,17.63
2019-03-30T04:20:43.646Z,15.50
2019-03-30T04:25:49.522Z,16.00
2019-03-30T04:30:54.925Z,14.67
2019-03-30T04:36:00.626Z,14.73
2019-03-30T04:41:06.341Z,13.00
2019-03-30T04:46:11.351Z,16.40
2019-03-30T04:51:16.401Z,17.57
2019-03-30T04:56:21.383Z,16.10
2019-03-30T05:01:25.817Z,14.63
2019-03-30T05:06:30.533Z,20.00
2019-03-30T05:11:35.577Z,14.73
2019-03-30T05:16:40.247Z,17.63
2019-03-30T05:21:45.127Z,19.43
2019-03-30T05:26:50.145Z,20.57
2019-03-30T05:31:55.730Z,26.93
2019-03-30T05:37:01.381Z,18.53
2019-03-30T05:42:07.344Z,16.87
2019-03-30T05:47:14.267Z,19.53
2019-03-30T05:52:26.845Z,18.50
2019-03-30T05:57:28.561Z,17.97
2019-03-30T06:02:34.393Z,18.30
2019-03-30T06:07:40.345Z,20.80
2019-03-30T06:12:46.396Z,22.30
2019-03-30T06:17:53.427Z,24.97
2019-03-30T06:22:59.117Z,23.47
2019-03-30T06:28:04.931Z,21.00
2019-03-30T06:33:10.898Z,23.17
2019-03-30T06:38:17.047Z,21.73
2019-03-30T06:43:23.456Z,25.00
2019-03-30T06:48:30.559Z,27.13
2019-03-30T06:53:36.995Z,23.20
2019-03-30T06:58:42.991Z,28.10
2019-03-30T07:03:49.406Z,23.43
2019-03-30T07:08:56.649Z,23.80
2019-03-30T07:14:04.569Z,23.87
2019-03-30T07:19:13.467Z,28.20
2019-03-30T07:24:19.311Z,23.07
2019-03-30T07:29:26.140Z,25.57
2019-03-30T07:34:32.100Z,24.27
2019-03-30T07:39:38.375Z,24.17
2019-03-30T07:44:44.335Z,27.43
2019-03-30T07:49:50.176Z,27.27
2019-03-30T07:54:56.251Z,29.67
2019-03-30T08:00:02.209Z,33.27
2019-03-30T08:05:08.355Z,29.43
2019-03-30T08:10:14.753Z,25.63
2019-03-30T08:15:20.878Z,30.60
2019-03-30T08:20:27.954Z,23.53
2019-03-30T08:25:34.881Z,27.67
2019-03-30T08:30:40.568Z,27.00
2019-03-30T08:35:46.843Z,25.77
2019-03-30T08:40:52.853Z,28.50
2019-03-30T08:45:58.689Z,27.73
2019-03-30T08:51:05.099Z,28.40
2019-03-30T08:56:11.505Z,27.83
2019-03-30T09:01:16.751Z,25.70
2019-03-30T09:06:22.219Z,31.40
2019-03-30T09:11:27.583Z,28.43
2019-03-30T09:16:32.917Z,28.47
2019-03-30T09:21:39.055Z,29.37
2019-03-30T09:26:44.462Z,29.13
2019-03-30T09:31:49.755Z,35.90
2019-03-30T09:36:56.303Z,26.03
2019-03-30T09:42:02.685Z,25.93
2019-03-30T09:47:09.032Z,34.80
2019-03-30T09:52:15.194Z,26.63
2019-03-30T09:57:21.488Z,29.53
2019-03-30T10:02:26.975Z,27.70
2019-03-30T10:07:33.609Z,26.70
2019-03-30T10:12:40.141Z,27.93
2019-03-30T10:17:46.586Z,26.37
2019-03-30T10:22:53.984Z,26.10
2019-03-30T10:28:00.489Z,26.80
2019-03-30T10:33:06.626Z,30.13
2019-03-30T10:38:12.515Z,23.57
2019-03-30T10:43:19.214Z,22.77
2019-03-30T10:48:26.549Z,24.73
2019-03-30T10:53:32.617Z,23.27
2019-03-30T10:58:38.637Z,26.90
2019-03-30T11:03:44.831Z,28.10
2019-03-30T11:08:51.394Z,29.77
2019-03-30T11:13:57.693Z,28.93
2019-03-30T11:19:03.794Z,23.60
2019-03-30T11:24:10.305Z,22.90
2019-03-30T11:29:16.251Z,28.73
2019-03-30T11:34:22.705Z,28.20
2019-03-30T11:39:29.262Z,29.93
2019-03-30T11:44:35.859Z,29.13
2019-03-30T11:49:42.105Z,25.20
2019-03-30T11:54:48.036Z,25.40
2019-03-30T11:59:54.052Z,21.60
2019-03-30T12:05:00.132Z,23.57
2019-03-30T12:10:07.368Z,27.87
2019-03-30T12:15:13.899Z,24.00
2019-03-30T12:20:20.390Z,24.53
2019-03-30T12:25:35.591Z,25.13
2019-03-30T12:30:34.130Z,20.07
2019-03-30T12:35:40.021Z,17.47
2019-03-30T12:40:46.367Z,21.07
2019-03-30T12:45:51.999Z,23.07
2019-03-30T12:50:58.523Z,13.90
2019-03-30T12:56:03.901Z,14.30
2019-03-30T13:01:09.108Z,15.47
2019-03-30T13:06:14.129Z,23.13
2019-03-30T13:11:21.255Z,19.47
2019-03-30T13:16:26.570Z,22.13
2019-03-30T13:21:32.522Z,17.63
2019-03-30T13:26:38.107Z,14.80
2019-03-30T13:31:43.682Z,15.30
2019-03-30T13:36:49.322Z,13.67
2019-03-30T13:41:55.917Z,13.23
2019-03-30T13:47:02.553Z,12.07
2019-03-30T13:52:09.285Z,6.70
2019-03-30T13:57:15.569Z,10.33
2019-03-30T14:02:22.047Z,8.80
2019-03-30T14:07:28.365Z,10.70
2019-03-30T14:12:34.383Z,8.90
2019-03-30T14:17:40.948Z,9.80
2019-03-30T14:22:46.826Z,8.33
2019-03-30T14:27:53.597Z,8.07
2019-03-30T14:33:00.151Z,13.80
2019-03-30T14:38:06.333Z,8.87
2019-03-30T14:43:12.763Z,10.23
2019-03-30T14:48:19.704Z,6.67
2019-03-30T14:53:25.838Z,9.93
2019-03-30T14:58:31.632Z,6.97
2019-03-30T15:03:37.543Z,7.33
2019-03-30T15:08:45.149Z,8.30
2019-03-30T15:13:51.436Z,6.90
2019-03-30T15:18:57.373Z,8.17
2019-03-30T15:24:03.676Z,8.65
2019-03-30T15:29:10.407Z,14.70
2019-03-30T15:34:16.679Z,12.37
2019-03-30T15:39:22.796Z,11.30
2019-03-30T15:44:29.169Z,8.77
2019-03-30T15:49:35.606Z,8.20
2019-03-30T15:54:42.099Z,11.93
2019-03-30T15:59:48.409Z,9.17
2019-03-30T16:04:54.532Z,6.30
2019-03-30T16:10:00.655Z,8.40
2019-03-30T16:15:07.366Z,15.80
2019-03-30T16:20:14.652Z,6.23
2019-03-30T16:25:21.161Z,6.13
2019-03-30T16:30:27.909Z,6.80
2019-03-30T16:35:33.818Z,6.23
2019-03-30T16:40:39.976Z,7.40
2019-03-30T16:45:46.224Z,8.33
2019-03-30T16:50:53.650Z,13.87
2019-03-30T16:55:59.554Z,8.30
2019-03-30T17:01:04.169Z,7.90
2019-03-30T17:06:09.734Z,7.63
2019-03-30T17:11:14.859Z,27.07
2019-03-30T17:16:20.539Z,7.53
2019-03-30T17:21:26.109Z,17.43
2019-03-30T17:26:31.717Z,6.60
2019-03-30T17:31:37.078Z,6.47
2019-03-30T17:36:43.711Z,6.90
2019-03-30T17:41:48.753Z,15.90
2019-03-30T17:46:54.960Z,7.23
2019-03-30T17:52:01.047Z,7.87
2019-03-30T17:57:07.744Z,8.00
2019-03-30T18:02:13.704Z,13.13
2019-03-30T18:07:19.856Z,11.60
2019-03-30T18:12:25.756Z,40.30
2019-03-30T18:17:31.775Z,72.17
2019-03-30T18:22:38.389Z,37.53
2019-03-30T18:27:44.779Z,28.43
2019-03-30T18:32:53.356Z,17.20
2019-03-30T18:38:00.747Z,21.27
2019-03-30T18:43:06.808Z,11.00
2019-03-30T18:48:13.951Z,10.90
2019-03-30T18:53:20.790Z,13.43
2019-03-30T18:58:40.725Z,14.50
2019-03-30T19:03:35.060Z,13.20
2019-03-30T19:08:41.302Z,9.30
2019-03-30T19:13:47.356Z,9.97
2019-03-30T19:18:54.423Z,6.40
2019-03-30T19:24:00.642Z,10.33
2019-03-30T19:29:06.828Z,10.03
2019-03-30T19:34:14.389Z,9.53
2019-03-30T19:39:20.485Z,9.83
2019-03-30T19:44:26.022Z,10.90
2019-03-30T19:49:32.557Z,14.10
2019-03-30T19:54:38.382Z,8.13
2019-03-30T19:59:46.202Z,14.40
2019-03-30T20:04:52.897Z,10.83
2019-03-30T20:09:58.689Z,15.07
2019-03-30T20:15:05.277Z,13.23
2019-03-30T20:20:10.981Z,14.50
2019-03-30T20:25:17.272Z,13.30
2019-03-30T20:30:24.548Z,13.33
2019-03-30T20:35:32.007Z,12.60
2019-03-30T20:40:37.713Z,10.70
2019-03-30T20:45:44.093Z,13.57
2019-03-30T20:50:50.493Z,11.30
2019-03-30T20:55:56.413Z,9.70
2019-03-30T21:01:02.530Z,11.30
2019-03-30T21:06:08.593Z,11.87
2019-03-30T21:11:13.573Z,12.30
2019-03-30T21:16:18.526Z,13.13
2019-03-30T21:21:23.634Z,15.30
2019-03-30T21:26:29.671Z,14.00
2019-03-30T21:31:35.961Z,11.27
2019-03-30T21:36:41.004Z,12.53
2019-03-30T21:41:46.117Z,13.27
2019-03-30T21:46:52.126Z,11.23
2019-03-30T21:51:57.291Z,12.23
2019-03-30T21:57:04.353Z,12.93
2019-03-30T22:02:10.705Z,11.27
2019-03-30T22:07:17.031Z,10.53
2019-03-30T22:12:23.201Z,11.97
2019-03-30T22:17:29.047Z,9.97
2019-03-30T22:22:34.377Z,11.87
2019-03-30T22:27:40.218Z,9.60
2019-03-30T22:32:46.567Z,14.30
2019-03-30T22:37:53.353Z,11.33
2019-03-30T22:42:59.127Z,12.33
2019-03-30T22:48:05.197Z,18.87
2019-03-30T22:53:10.567Z,13.87
2019-03-30T22:58:17.501Z,11.93
2019-03-30T23:03:23.523Z,13.33
2019-03-30T23:08:29.681Z,11.47
2019-03-30T23:13:36.249Z,12.30
2019-03-30T23:18:45.136Z,11.33
2019-03-30T23:23:50.150Z,13.43
2019-03-30T23:28:59.455Z,9.90
2019-03-30T23:34:06.099Z,11.40
2019-03-30T23:39:12.909Z,10.87
2019-03-30T23:44:18.711Z,10.40
2019-03-30T23:49:24.623Z,11.20
2019-03-30T23:54:30.353Z,8.97
2019-03-30T23:59:36.046Z,11.10
